tokenbooster.io alexa rank chart, tokenbooster.io alexa rank daily changes

tokenbooster.io alexa rank chart, tokenbooster.io alexa rank daily changes

tokenbooster.io
Actual rank:
178 075

RANK HISTORY

Date Rank Diff
2018/11/20 178 075 -69 298
2018/11/19 247 373 -87 401
2018/11/18 334 774 +155 850
2018/11/17 178 924 -157 746
2018/11/16 336 670 +161 978
2018/11/15 174 692 -10 069
2018/11/14 184 761 +46 293
2018/11/13 138 468 +23 079
2018/11/12 115 389 -62 322
2018/11/11 177 711 -20 098
2018/11/10 197 809 +20 334
2018/11/09 177 475 -32 219
2018/11/08 209 694 +101 194
2018/11/07 108 500 -49 326
2018/11/06 157 826 +44 344
2018/11/05 113 482 -212 080
2018/11/04 325 562 -382
2018/11/03 325 944 +138 344
2018/11/02 187 600 +21 484
2018/11/01 166 116 -124 707
2018/10/31 290 823 +188 998
2018/10/30 101 825 -91 458
2018/10/29 193 283 +59 479
2018/10/28 133 804 -44 439
2018/10/27 178 243 -6 847
2018/10/26 185 090 -235 799
2018/10/25 420 889 +181 835
2018/10/24 239 054 +38 081
2018/10/23 200 973 -74 416
2018/10/22 275 389 +58 066
2018/10/21 217 323 +13 276
2018/10/20 204 047 -14 367
2018/10/19 218 414 +6 294
2018/10/18 212 120 -569 151
2018/10/17 781 271 +344 709
2018/10/16 436 562 +281 619
2018/10/15 154 943 -245 902
2018/10/14 400 845 +165 805
2018/10/13 235 040 +22 628
2018/10/11 212 412 -263 786
2018/10/10 476 198 +38 708
2018/10/09 437 490 +260 861
2018/10/08 176 629 -73 504
2018/10/05 250 133 -706 909
2018/10/01 957 042 +649 869
2018/09/30 307 173 -977
2018/09/28 308 150 -264 058
2018/09/27 572 208 +101 893
2018/09/25 470 315 -140 600
2018/09/22 610 915

WIDGET FOR YOUR SITE

DOMAINS WITH THE NEAREST RANK

Domain Rank
nishatlinen.com 178 070
imini.in 178 071
exquis.ro 178 072
houlihanlawrence.com 178 073
mizanstore.com 178 074
tokenbooster.io 178 075
parfumcity.com.ua 178 076
cse.edu 178 077
tech-jadid.blogspot.com 178 078
alami4you.com 178 079
uniri.hr 178 080

DOMAINS WITH THE NEAREST RANK BY TLD .io

Domain Rank
brutalmania.io 177 125
thanecoin.io 177 322
bchonline.io 177 411
speed.io 177 977
m4ufree.io 178 011
tokenbooster.io 178 075
bloc.io 178 127
hookr.io 178 857
frama.io 179 353
bitcoinkings.io 179 770
whub.io 179 799